sensor_id;sensor_type;location;lat;lon;timestamp;temperature;humidity
23291;DHT22;11814;44.686;10.842;2024-03-06T00:00:59;9.70;99.90
23291;DHT22;11814;44.686;10.842;2024-03-06T00:03:24;9.40;99.90
23291;DHT22;11814;44.686;10.842;2024-03-06T00:05:50;9.40;99.90
23291;DHT22;11814;44.686;10.842;2024-03-06T00:08:16;9.30;99.90
23291;DHT22;11814;44.686;10.842;2024-03-06T00:10:42;9.20;99.90
23291;DHT22;11814;44.686;10.842;2024-03-06T00:13:08;9.10;99.90
23291;DHT22;11814;44.686;10.842;2024-03-06T00:15:34;9.00;99.90
23291;DHT22;11814;44.686;10.842;2024-03-06T00:18:00;9.00;99.90
23291;DHT22;11814;44.686;10.842;2024-03-06T00:20:26;9.10;99.90
23291;DHT22;11814;44.686;10.842;2024-03-06T00:22:52;9.10;99.90
23291;DHT22;11814;44.686;10.842;2024-03-06T00:25:17;9.10;99.90
23291;DHT22;11814;44.686;10.842;2024-03-06T00:27:43;9.10;99.90
23291;DHT22;11814;44.686;10.842;2024-03-06T00:30:09;9.20;99.90
23291;DHT22;11814;44.686;10.842;2024-03-06T00:32:35;9.10;99.90
23291;DHT22;11814;44.686;10.842;2024-03-06T00:35:00;9.10;99.90
23291;DHT22;11814;44.686;10.842;2024-03-06T00:37:26;9.10;99.90
23291;DHT22;11814;44.686;10.842;2024-03-06T00:39:51;9.20;99.90
23291;DHT22;11814;44.686;10.842;2024-03-06T00:42:17;9.10;99.90
23291;DHT22;11814;44.686;10.842;2024-03-06T00:44:43;9.10;99.90
23291;DHT22;11814;44.686;10.842;2024-03-06T00:47:09;9.20;99.90
23291;DHT22;11814;44.686;10.842;2024-03-06T00:49:34;9.10;99.90
23291;DHT22;11814;44.686;10.842;2024-03-06T00:52:00;9.10;99.90
23291;DHT22;11814;44.686;10.842;2024-03-06T00:54:25;9.10;99.90
23291;DHT22;11814;44.686;10.842;2024-03-06T00:56:51;9.10;99.90
23291;DHT22;11814;44.686;10.842;2024-03-06T00:59:17;9.20;99.90
23291;DHT22;11814;44.686;10.842;2024-03-06T01:01:42;9.10;99.90
23291;DHT22;11814;44.686;10.842;2024-03-06T01:04:08;9.00;99.90
23291;DHT22;11814;44.686;10.842;2024-03-06T01:06:34;9.00;99.90
23291;DHT22;11814;44.686;10.842;2024-03-06T01:08:59;9.00;99.90
23291;DHT22;11814;44.686;10.842;2024-03-06T01:11:25;8.90;99.90
23291;DHT22;11814;44.686;10.842;2024-03-06T01:13:52;8.90;99.90
23291;DHT22;11814;44.686;10.842;2024-03-06T01:16:18;8.90;99.90
23291;DHT22;11814;44.686;10.842;2024-03-06T01:18:43;8.90;99.90
23291;DHT22;11814;44.686;10.842;2024-03-06T01:21:09;8.80;99.90
23291;DHT22;11814;44.686;10.842;2024-03-06T01:23:35;8.90;99.90
23291;DHT22;11814;44.686;10.842;2024-03-06T01:26:01;8.90;99.90
23291;DHT22;11814;44.686;10.842;2024-03-06T01:28:26;8.90;99.90
23291;DHT22;11814;44.686;10.842;2024-03-06T01:30:52;9.00;99.90
23291;DHT22;11814;44.686;10.842;2024-03-06T01:33:18;8.90;99.90
23291;DHT22;11814;44.686;10.842;2024-03-06T01:35:43;8.90;99.90
23291;DHT22;11814;44.686;10.842;2024-03-06T01:38:12;9.00;99.90
23291;DHT22;11814;44.686;10.842;2024-03-06T01:40:43;8.80;99.90
23291;DHT22;11814;44.686;10.842;2024-03-06T01:43:20;8.80;99.90
23291;DHT22;11814;44.686;10.842;2024-03-06T01:45:48;8.80;99.90
23291;DHT22;11814;44.686;10.842;2024-03-06T01:48:15;8.80;99.90
23291;DHT22;11814;44.686;10.842;2024-03-06T01:50:41;8.80;99.90
23291;DHT22;11814;44.686;10.842;2024-03-06T01:53:08;8.70;99.90
23291;DHT22;11814;44.686;10.842;2024-03-06T01:55:35;8.80;99.90
23291;DHT22;11814;44.686;10.842;2024-03-06T01:58:01;8.70;99.90
23291;DHT22;11814;44.686;10.842;2024-03-06T02:00:27;8.70;99.90
23291;DHT22;11814;44.686;10.842;2024-03-06T02:02:53;8.70;99.90
23291;DHT22;11814;44.686;10.842;2024-03-06T02:05:19;8.70;99.90
23291;DHT22;11814;44.686;10.842;2024-03-06T02:07:47;8.70;99.90
23291;DHT22;11814;44.686;10.842;2024-03-06T02:10:12;8.60;99.90
23291;DHT22;11814;44.686;10.842;2024-03-06T02:12:38;8.60;99.90
23291;DHT22;11814;44.686;10.842;2024-03-06T02:15:05;8.50;99.90
23291;DHT22;11814;44.686;10.842;2024-03-06T02:17:31;8.40;99.90
23291;DHT22;11814;44.686;10.842;2024-03-06T02:19:56;8.40;99.90
23291;DHT22;11814;44.686;10.842;2024-03-06T02:22:23;8.30;99.90
23291;DHT22;11814;44.686;10.842;2024-03-06T02:24:49;8.30;99.90
23291;DHT22;11814;44.686;10.842;2024-03-06T02:27:15;8.30;99.90
23291;DHT22;11814;44.686;10.842;2024-03-06T02:29:42;8.10;99.90
23291;DHT22;11814;44.686;10.842;2024-03-06T02:32:07;8.20;99.90
23291;DHT22;11814;44.686;10.842;2024-03-06T02:34:33;8.10;99.90
23291;DHT22;11814;44.686;10.842;2024-03-06T02:36:59;8.20;99.90
23291;DHT22;11814;44.686;10.842;2024-03-06T02:39:25;8.20;99.90
23291;DHT22;11814;44.686;10.842;2024-03-06T02:41:51;8.10;99.90
23291;DHT22;11814;44.686;10.842;2024-03-06T02:44:16;8.10;99.90
23291;DHT22;11814;44.686;10.842;2024-03-06T02:46:49;8.00;99.90
23291;DHT22;11814;44.686;10.842;2024-03-06T02:49:15;8.00;99.90
23291;DHT22;11814;44.686;10.842;2024-03-06T02:51:41;8.00;99.90
23291;DHT22;11814;44.686;10.842;2024-03-06T02:54:07;7.90;99.90
23291;DHT22;11814;44.686;10.842;2024-03-06T02:56:33;7.90;99.90
23291;DHT22;11814;44.686;10.842;2024-03-06T02:58:58;7.90;99.90
23291;DHT22;11814;44.686;10.842;2024-03-06T03:01:24;8.00;99.90
23291;DHT22;11814;44.686;10.842;2024-03-06T03:03:49;8.00;99.90
23291;DHT22;11814;44.686;10.842;2024-03-06T03:06:16;8.00;99.90
23291;DHT22;11814;44.686;10.842;2024-03-06T03:08:42;8.00;99.90
23291;DHT22;11814;44.686;10.842;2024-03-06T03:11:07;8.00;99.90
23291;DHT22;11814;44.686;10.842;2024-03-06T03:13:33;8.00;99.90
23291;DHT22;11814;44.686;10.842;2024-03-06T03:15:59;8.00;99.90
23291;DHT22;11814;44.686;10.842;2024-03-06T03:18:25;8.00;99.90
23291;DHT22;11814;44.686;10.842;2024-03-06T03:20:50;7.90;99.90
23291;DHT22;11814;44.686;10.842;2024-03-06T03:23:16;7.90;99.90
23291;DHT22;11814;44.686;10.842;2024-03-06T03:25:47;7.80;99.90
23291;DHT22;11814;44.686;10.842;2024-03-06T03:28:14;7.70;99.90
23291;DHT22;11814;44.686;10.842;2024-03-06T03:30:42;7.70;99.90
23291;DHT22;11814;44.686;10.842;2024-03-06T03:33:09;7.80;99.90
23291;DHT22;11814;44.686;10.842;2024-03-06T03:35:34;7.70;99.90
23291;DHT22;11814;44.686;10.842;2024-03-06T03:38:00;7.70;99.90
23291;DHT22;11814;44.686;10.842;2024-03-06T03:40:26;7.60;99.90
23291;DHT22;11814;44.686;10.842;2024-03-06T03:42:51;7.60;99.90
23291;DHT22;11814;44.686;10.842;2024-03-06T03:45:17;7.60;99.90
23291;DHT22;11814;44.686;10.842;2024-03-06T03:47:42;7.60;99.90
23291;DHT22;11814;44.686;10.842;2024-03-06T03:50:09;7.50;99.90
23291;DHT22;11814;44.686;10.842;2024-03-06T03:52:34;7.60;99.90
23291;DHT22;11814;44.686;10.842;2024-03-06T03:55:00;7.60;99.90
23291;DHT22;11814;44.686;10.842;2024-03-06T03:57:26;7.70;99.90
23291;DHT22;11814;44.686;10.842;2024-03-06T03:59:51;7.60;99.90
23291;DHT22;11814;44.686;10.842;2024-03-06T04:02:17;7.60;99.90
23291;DHT22;11814;44.686;10.842;2024-03-06T04:04:42;7.50;99.90
23291;DHT22;11814;44.686;10.842;2024-03-06T04:07:08;7.50;99.90
23291;DHT22;11814;44.686;10.842;2024-03-06T04:09:34;7.50;99.90
23291;DHT22;11814;44.686;10.842;2024-03-06T04:12:03;7.40;99.90
23291;DHT22;11814;44.686;10.842;2024-03-06T04:14:29;7.40;99.90
23291;DHT22;11814;44.686;10.842;2024-03-06T04:16:55;7.40;99.90
23291;DHT22;11814;44.686;10.842;2024-03-06T04:19:21;7.40;99.90
23291;DHT22;11814;44.686;10.842;2024-03-06T04:21:47;7.40;99.90
23291;DHT22;11814;44.686;10.842;2024-03-06T04:24:12;7.50;99.90
23291;DHT22;11814;44.686;10.842;2024-03-06T04:26:38;7.50;99.90
23291;DHT22;11814;44.686;10.842;2024-03-06T04:29:03;7.70;99.90
23291;DHT22;11814;44.686;10.842;2024-03-06T04:31:29;7.60;99.90
23291;DHT22;11814;44.686;10.842;2024-03-06T04:33:55;7.60;99.90
23291;DHT22;11814;44.686;10.842;2024-03-06T04:36:20;7.60;99.90
23291;DHT22;11814;44.686;10.842;2024-03-06T04:38:46;7.60;99.90
23291;DHT22;11814;44.686;10.842;2024-03-06T04:41:11;7.60;99.90
23291;DHT22;11814;44.686;10.842;2024-03-06T04:43:37;7.50;99.90
23291;DHT22;11814;44.686;10.842;2024-03-06T04:46:03;7.80;99.90
23291;DHT22;11814;44.686;10.842;2024-03-06T04:48:29;7.60;99.90
23291;DHT22;11814;44.686;10.842;2024-03-06T04:50:55;7.60;99.90
23291;DHT22;11814;44.686;10.842;2024-03-06T04:53:20;7.80;99.90
23291;DHT22;11814;44.686;10.842;2024-03-06T04:55:46;7.60;99.90
23291;DHT22;11814;44.686;10.842;2024-03-06T04:58:12;7.70;99.90
23291;DHT22;11814;44.686;10.842;2024-03-06T05:00:38;7.60;99.90
23291;DHT22;11814;44.686;10.842;2024-03-06T05:03:04;7.60;99.90
23291;DHT22;11814;44.686;10.842;2024-03-06T05:05:30;7.60;99.90
23291;DHT22;11814;44.686;10.842;2024-03-06T05:07:56;7.60;99.90
23291;DHT22;11814;44.686;10.842;2024-03-06T05:10:22;7.60;99.90
23291;DHT22;11814;44.686;10.842;2024-03-06T05:12:47;7.60;99.90
23291;DHT22;11814;44.686;10.842;2024-03-06T05:15:13;7.60;99.90
23291;DHT22;11814;44.686;10.842;2024-03-06T05:17:39;7.60;99.90
23291;DHT22;11814;44.686;10.842;2024-03-06T05:20:05;7.50;99.90
23291;DHT22;11814;44.686;10.842;2024-03-06T05:22:31;7.40;99.90
23291;DHT22;11814;44.686;10.842;2024-03-06T05:24:57;7.30;99.90
23291;DHT22;11814;44.686;10.842;2024-03-06T05:27:24;7.30;99.90
23291;DHT22;11814;44.686;10.842;2024-03-06T05:29:49;7.30;99.90
23291;DHT22;11814;44.686;10.842;2024-03-06T05:32:15;7.30;99.90
23291;DHT22;11814;44.686;10.842;2024-03-06T05:34:40;7.40;99.90
23291;DHT22;11814;44.686;10.842;2024-03-06T05:37:06;7.40;99.90
23291;DHT22;11814;44.686;10.842;2024-03-06T05:39:32;7.50;99.90
23291;DHT22;11814;44.686;10.842;2024-03-06T05:42:03;7.60;99.90
23291;DHT22;11814;44.686;10.842;2024-03-06T05:44:33;7.40;99.90
23291;DHT22;11814;44.686;10.842;2024-03-06T05:46:59;7.40;99.90
23291;DHT22;11814;44.686;10.842;2024-03-06T05:49:26;7.40;99.90
23291;DHT22;11814;44.686;10.842;2024-03-06T05:51:52;7.40;99.90
23291;DHT22;11814;44.686;10.842;2024-03-06T05:54:19;7.40;99.90
23291;DHT22;11814;44.686;10.842;2024-03-06T05:56:45;7.60;99.90
23291;DHT22;11814;44.686;10.842;2024-03-06T05:59:10;7.40;99.90
23291;DHT22;11814;44.686;10.842;2024-03-06T06:01:36;7.50;99.90
23291;DHT22;11814;44.686;10.842;2024-03-06T06:04:02;7.40;99.90
23291;DHT22;11814;44.686;10.842;2024-03-06T06:06:28;7.40;99.90
23291;DHT22;11814;44.686;10.842;2024-03-06T06:08:53;7.40;99.90
23291;DHT22;11814;44.686;10.842;2024-03-06T06:11:19;7.40;99.90
23291;DHT22;11814;44.686;10.842;2024-03-06T06:13:45;7.50;99.90
23291;DHT22;11814;44.686;10.842;2024-03-06T06:16:10;7.40;99.90
23291;DHT22;11814;44.686;10.842;2024-03-06T06:18:36;7.50;99.90
23291;DHT22;11814;44.686;10.842;2024-03-06T06:21:02;7.60;99.90
23291;DHT22;11814;44.686;10.842;2024-03-06T06:23:30;7.80;99.90
23291;DHT22;11814;44.686;10.842;2024-03-06T06:25:55;8.20;99.90
23291;DHT22;11814;44.686;10.842;2024-03-06T06:28:21;8.60;99.90
23291;DHT22;11814;44.686;10.842;2024-03-06T06:30:48;9.00;99.90
23291;DHT22;11814;44.686;10.842;2024-03-06T06:33:14;9.30;99.90
23291;DHT22;11814;44.686;10.842;2024-03-06T06:35:39;9.80;99.90
23291;DHT22;11814;44.686;10.842;2024-03-06T06:38:05;10.10;99.90
23291;DHT22;11814;44.686;10.842;2024-03-06T06:40:30;10.60;99.90
23291;DHT22;11814;44.686;10.842;2024-03-06T06:42:56;11.40;99.90
23291;DHT22;11814;44.686;10.842;2024-03-06T06:45:22;12.50;99.90
23291;DHT22;11814;44.686;10.842;2024-03-06T06:47:49;14.00;99.90
23291;DHT22;11814;44.686;10.842;2024-03-06T06:50:15;15.10;99.90
23291;DHT22;11814;44.686;10.842;2024-03-06T06:52:42;16.00;99.90
23291;DHT22;11814;44.686;10.842;2024-03-06T06:55:08;16.60;99.90
23291;DHT22;11814;44.686;10.842;2024-03-06T06:57:37;16.80;94.80
23291;DHT22;11814;44.686;10.842;2024-03-06T07:00:06;17.00;92.20
23291;DHT22;11814;44.686;10.842;2024-03-06T07:02:39;17.20;90.60
23291;DHT22;11814;44.686;10.842;2024-03-06T07:05:07;17.70;89.60
23291;DHT22;11814;44.686;10.842;2024-03-06T07:07:34;18.40;85.90
23291;DHT22;11814;44.686;10.842;2024-03-06T07:10:00;18.80;82.20
23291;DHT22;11814;44.686;10.842;2024-03-06T07:12:25;19.30;79.00
23291;DHT22;11814;44.686;10.842;2024-03-06T07:14:51;19.60;77.60
23291;DHT22;11814;44.686;10.842;2024-03-06T07:17:17;20.10;74.00
23291;DHT22;11814;44.686;10.842;2024-03-06T07:19:42;20.60;72.10
23291;DHT22;11814;44.686;10.842;2024-03-06T07:22:08;21.30;69.60
23291;DHT22;11814;44.686;10.842;2024-03-06T07:24:34;22.00;67.90
23291;DHT22;11814;44.686;10.842;2024-03-06T07:26:59;22.90;65.50
23291;DHT22;11814;44.686;10.842;2024-03-06T07:29:27;23.80;62.80
23291;DHT22;11814;44.686;10.842;2024-03-06T07:31:53;24.70;60.00
23291;DHT22;11814;44.686;10.842;2024-03-06T07:34:19;25.40;57.80
23291;DHT22;11814;44.686;10.842;2024-03-06T07:36:47;25.90;56.00
23291;DHT22;11814;44.686;10.842;2024-03-06T07:39:14;26.60;54.30
23291;DHT22;11814;44.686;10.842;2024-03-06T07:41:40;27.10;52.60
23291;DHT22;11814;44.686;10.842;2024-03-06T07:44:06;27.40;51.60
23291;DHT22;11814;44.686;10.842;2024-03-06T07:46:31;27.10;50.20
23291;DHT22;11814;44.686;10.842;2024-03-06T07:48:57;26.50;50.00
23291;DHT22;11814;44.686;10.842;2024-03-06T07:51:23;26.50;50.40
23291;DHT22;11814;44.686;10.842;2024-03-06T07:53:48;27.00;49.90
23291;DHT22;11814;44.686;10.842;2024-03-06T07:56:16;27.20;49.10
23291;DHT22;11814;44.686;10.842;2024-03-06T07:58:41;27.70;48.70
23291;DHT22;11814;44.686;10.842;2024-03-06T08:01:07;28.00;48.00
23291;DHT22;11814;44.686;10.842;2024-03-06T08:03:33;28.20;47.50
23291;DHT22;11814;44.686;10.842;2024-03-06T08:05:59;28.80;47.20
23291;DHT22;11814;44.686;10.842;2024-03-06T08:08:25;29.30;46.20
23291;DHT22;11814;44.686;10.842;2024-03-06T08:10:51;29.90;45.30
23291;DHT22;11814;44.686;10.842;2024-03-06T08:13:17;30.40;44.40
23291;DHT22;11814;44.686;10.842;2024-03-06T08:15:44;30.60;43.50
23291;DHT22;11814;44.686;10.842;2024-03-06T08:18:10;30.60;43.00
23291;DHT22;11814;44.686;10.842;2024-03-06T08:20:36;30.50;42.80
23291;DHT22;11814;44.686;10.842;2024-03-06T08:23:02;30.80;42.70
23291;DHT22;11814;44.686;10.842;2024-03-06T08:25:28;31.10;41.90
23291;DHT22;11814;44.686;10.842;2024-03-06T08:27:54;31.40;41.80
23291;DHT22;11814;44.686;10.842;2024-03-06T08:30:19;31.50;41.40
23291;DHT22;11814;44.686;10.842;2024-03-06T08:32:45;31.60;41.00
23291;DHT22;11814;44.686;10.842;2024-03-06T08:35:12;31.80;40.70
23291;DHT22;11814;44.686;10.842;2024-03-06T08:37:39;31.90;40.20
23291;DHT22;11814;44.686;10.842;2024-03-06T08:40:05;31.80;40.30
23291;DHT22;11814;44.686;10.842;2024-03-06T08:42:32;31.70;40.00
23291;DHT22;11814;44.686;10.842;2024-03-06T08:44:58;31.80;39.90
23291;DHT22;11814;44.686;10.842;2024-03-06T08:47:24;31.70;39.90
23291;DHT22;11814;44.686;10.842;2024-03-06T08:49:49;31.60;39.80
23291;DHT22;11814;44.686;10.842;2024-03-06T08:52:15;31.60;39.90
23291;DHT22;11814;44.686;10.842;2024-03-06T08:54:41;31.50;39.80
23291;DHT22;11814;44.686;10.842;2024-03-06T08:57:07;31.30;39.90
23291;DHT22;11814;44.686;10.842;2024-03-06T08:59:36;31.10;40.10
23291;DHT22;11814;44.686;10.842;2024-03-06T09:02:18;31.00;40.60
23291;DHT22;11814;44.686;10.842;2024-03-06T09:04:45;31.00;40.70
23291;DHT22;11814;44.686;10.842;2024-03-06T09:07:11;31.20;40.90
23291;DHT22;11814;44.686;10.842;2024-03-06T09:09:38;31.30;40.50
23291;DHT22;11814;44.686;10.842;2024-03-06T09:12:08;31.00;40.90
23291;DHT22;11814;44.686;10.842;2024-03-06T09:14:37;30.80;41.40
23291;DHT22;11814;44.686;10.842;2024-03-06T09:17:03;30.80;41.60
23291;DHT22;11814;44.686;10.842;2024-03-06T09:19:29;31.00;41.50
23291;DHT22;11814;44.686;10.842;2024-03-06T09:21:55;31.00;40.90
23291;DHT22;11814;44.686;10.842;2024-03-06T09:24:22;30.50;40.90
23291;DHT22;11814;44.686;10.842;2024-03-06T09:26:52;29.80;41.50
23291;DHT22;11814;44.686;10.842;2024-03-06T09:29:18;28.60;42.50
23291;DHT22;11814;44.686;10.842;2024-03-06T09:31:44;27.50;43.90
23291;DHT22;11814;44.686;10.842;2024-03-06T09:34:10;27.30;45.60
23291;DHT22;11814;44.686;10.842;2024-03-06T09:36:41;28.00;45.90
23291;DHT22;11814;44.686;10.842;2024-03-06T09:39:13;28.60;44.90
23291;DHT22;11814;44.686;10.842;2024-03-06T09:41:52;28.40;44.60
23291;DHT22;11814;44.686;10.842;2024-03-06T09:44:18;27.60;44.70
23291;DHT22;11814;44.686;10.842;2024-03-06T09:46:47;26.90;45.50
23291;DHT22;11814;44.686;10.842;2024-03-06T09:49:18;26.40;46.70
23291;DHT22;11814;44.686;10.842;2024-03-06T09:51:45;26.30;47.70
23291;DHT22;11814;44.686;10.842;2024-03-06T09:54:14;26.30;48.30
23291;DHT22;11814;44.686;10.842;2024-03-06T09:56:44;26.10;48.70
23291;DHT22;11814;44.686;10.842;2024-03-06T09:59:10;25.60;48.60
23291;DHT22;11814;44.686;10.842;2024-03-06T10:01:56;24.80;49.30
23291;DHT22;11814;44.686;10.842;2024-03-06T10:04:26;24.40;50.30
23291;DHT22;11814;44.686;10.842;2024-03-06T10:06:57;24.20;50.40
23291;DHT22;11814;44.686;10.842;2024-03-06T10:09:23;24.20;50.70
23291;DHT22;11814;44.686;10.842;2024-03-06T10:11:49;23.90;51.60
23291;DHT22;11814;44.686;10.842;2024-03-06T10:14:15;23.50;51.60
23291;DHT22;11814;44.686;10.842;2024-03-06T10:19:22;22.50;53.10
23291;DHT22;11814;44.686;10.842;2024-03-06T10:21:49;22.10;54.10
23291;DHT22;11814;44.686;10.842;2024-03-06T10:24:24;22.00;55.00
23291;DHT22;11814;44.686;10.842;2024-03-06T10:26:51;22.10;55.50
23291;DHT22;11814;44.686;10.842;2024-03-06T10:29:19;21.80;55.80
23291;DHT22;11814;44.686;10.842;2024-03-06T10:31:52;21.60;56.80
23291;DHT22;11814;44.686;10.842;2024-03-06T10:34:20;21.80;57.30
23291;DHT22;11814;44.686;10.842;2024-03-06T10:36:59;22.40;57.20
23291;DHT22;11814;44.686;10.842;2024-03-06T10:39:26;23.40;55.90
23291;DHT22;11814;44.686;10.842;2024-03-06T10:41:55;24.50;54.00
23291;DHT22;11814;44.686;10.842;2024-03-06T10:44:23;25.40;51.90
23291;DHT22;11814;44.686;10.842;2024-03-06T10:46:56;26.00;50.10
23291;DHT22;11814;44.686;10.842;2024-03-06T10:49:25;26.40;48.70
23291;DHT22;11814;44.686;10.842;2024-03-06T10:51:51;26.90;48.00
23291;DHT22;11814;44.686;10.842;2024-03-06T10:54:18;27.50;47.00
23291;DHT22;11814;44.686;10.842;2024-03-06T10:56:44;27.80;46.50
23291;DHT22;11814;44.686;10.842;2024-03-06T10:59:11;27.80;46.20
23291;DHT22;11814;44.686;10.842;2024-03-06T11:01:39;27.90;45.70
23291;DHT22;11814;44.686;10.842;2024-03-06T11:04:05;28.00;45.30
23291;DHT22;11814;44.686;10.842;2024-03-06T11:06:32;28.10;44.30
23291;DHT22;11814;44.686;10.842;2024-03-06T11:08:59;28.30;44.30
23291;DHT22;11814;44.686;10.842;2024-03-06T11:11:25;28.30;44.70
23291;DHT22;11814;44.686;10.842;2024-03-06T11:14:03;28.00;43.80
23291;DHT22;11814;44.686;10.842;2024-03-06T11:16:30;27.80;43.60
23291;DHT22;11814;44.686;10.842;2024-03-06T11:19:08;27.50;44.00
23291;DHT22;11814;44.686;10.842;2024-03-06T11:21:34;27.50;44.20
23291;DHT22;11814;44.686;10.842;2024-03-06T11:24:14;27.10;44.30
23291;DHT22;11814;44.686;10.842;2024-03-06T11:29:28;25.70;46.60
23291;DHT22;11814;44.686;10.842;2024-03-06T11:32:05;25.00;47.60
23291;DHT22;11814;44.686;10.842;2024-03-06T11:34:35;24.50;48.60
23291;DHT22;11814;44.686;10.842;2024-03-06T11:37:05;23.80;49.30
23291;DHT22;11814;44.686;10.842;2024-03-06T11:39:35;23.30;50.70
23291;DHT22;11814;44.686;10.842;2024-03-06T11:42:02;22.90;51.70
23291;DHT22;11814;44.686;10.842;2024-03-06T11:44:31;22.50;52.40
23291;DHT22;11814;44.686;10.842;2024-03-06T11:46:58;22.10;52.80
23291;DHT22;11814;44.686;10.842;2024-03-06T11:49:30;21.60;53.50
23291;DHT22;11814;44.686;10.842;2024-03-06T11:52:04;21.40;54.50
23291;DHT22;11814;44.686;10.842;2024-03-06T11:54:33;21.20;54.90
23291;DHT22;11814;44.686;10.842;2024-03-06T11:57:01;21.00;55.90
23291;DHT22;11814;44.686;10.842;2024-03-06T11:59:31;20.90;55.40
23291;DHT22;11814;44.686;10.842;2024-03-06T12:02:06;20.70;55.70
23291;DHT22;11814;44.686;10.842;2024-03-06T12:04:34;20.60;56.20
23291;DHT22;11814;44.686;10.842;2024-03-06T12:07:00;20.50;56.90
23291;DHT22;11814;44.686;10.842;2024-03-06T12:09:32;20.50;57.40
23291;DHT22;11814;44.686;10.842;2024-03-06T12:11:58;20.50;57.30
23291;DHT22;11814;44.686;10.842;2024-03-06T12:14:23;20.60;57.50
23291;DHT22;11814;44.686;10.842;2024-03-06T12:17:02;20.70;57.40
23291;DHT22;11814;44.686;10.842;2024-03-06T12:19:35;20.70;57.20
23291;DHT22;11814;44.686;10.842;2024-03-06T12:22:03;20.80;57.40
23291;DHT22;11814;44.686;10.842;2024-03-06T12:24:30;21.00;57.90
23291;DHT22;11814;44.686;10.842;2024-03-06T12:27:04;21.10;56.60
23291;DHT22;11814;44.686;10.842;2024-03-06T12:29:31;21.30;56.80
23291;DHT22;11814;44.686;10.842;2024-03-06T12:31:58;21.50;57.10
23291;DHT22;11814;44.686;10.842;2024-03-06T12:34:24;21.80;57.00
23291;DHT22;11814;44.686;10.842;2024-03-06T12:36:49;21.80;57.00
23291;DHT22;11814;44.686;10.842;2024-03-06T12:39:17;21.90;56.60
23291;DHT22;11814;44.686;10.842;2024-03-06T12:41:52;22.00;56.50
23291;DHT22;11814;44.686;10.842;2024-03-06T12:44:20;22.00;55.50
23291;DHT22;11814;44.686;10.842;2024-03-06T12:46:46;22.00;55.50
23291;DHT22;11814;44.686;10.842;2024-03-06T12:49:12;22.00;55.90
23291;DHT22;11814;44.686;10.842;2024-03-06T12:51:38;21.90;55.90
23291;DHT22;11814;44.686;10.842;2024-03-06T12:54:03;21.70;55.90
23291;DHT22;11814;44.686;10.842;2024-03-06T12:56:29;21.70;55.90
23291;DHT22;11814;44.686;10.842;2024-03-06T12:58:55;21.60;55.70
23291;DHT22;11814;44.686;10.842;2024-03-06T13:01:20;21.50;55.60
23291;DHT22;11814;44.686;10.842;2024-03-06T13:03:46;21.50;55.90
23291;DHT22;11814;44.686;10.842;2024-03-06T13:06:12;21.50;55.70
23291;DHT22;11814;44.686;10.842;2024-03-06T13:08:37;21.30;55.50
23291;DHT22;11814;44.686;10.842;2024-03-06T13:11:03;21.30;55.40
23291;DHT22;11814;44.686;10.842;2024-03-06T13:13:29;21.40;55.10
23291;DHT22;11814;44.686;10.842;2024-03-06T13:15:58;21.30;54.80
23291;DHT22;11814;44.686;10.842;2024-03-06T13:18:23;21.30;54.50
23291;DHT22;11814;44.686;10.842;2024-03-06T13:20:51;21.20;54.30
23291;DHT22;11814;44.686;10.842;2024-03-06T13:23:17;21.20;54.40
23291;DHT22;11814;44.686;10.842;2024-03-06T13:25:43;21.10;53.80
23291;DHT22;11814;44.686;10.842;2024-03-06T13:28:09;21.10;53.00
23291;DHT22;11814;44.686;10.842;2024-03-06T13:30:35;20.90;52.80
23291;DHT22;11814;44.686;10.842;2024-03-06T13:33:01;20.90;53.00
23291;DHT22;11814;44.686;10.842;2024-03-06T13:35:26;20.60;53.60
23291;DHT22;11814;44.686;10.842;2024-03-06T13:37:52;20.30;54.10
23291;DHT22;11814;44.686;10.842;2024-03-06T13:40:19;20.00;54.80
23291;DHT22;11814;44.686;10.842;2024-03-06T13:42:45;20.00;55.90
23291;DHT22;11814;44.686;10.842;2024-03-06T13:45:10;20.00;56.60
23291;DHT22;11814;44.686;10.842;2024-03-06T13:47:41;20.00;56.50
23291;DHT22;11814;44.686;10.842;2024-03-06T13:50:16;20.00;56.70
23291;DHT22;11814;44.686;10.842;2024-03-06T13:52:43;20.00;56.90
23291;DHT22;11814;44.686;10.842;2024-03-06T13:55:09;20.10;56.70
23291;DHT22;11814;44.686;10.842;2024-03-06T13:57:36;20.10;56.20
23291;DHT22;11814;44.686;10.842;2024-03-06T14:00:09;20.20;56.50
23291;DHT22;11814;44.686;10.842;2024-03-06T14:02:39;20.20;56.50
23291;DHT22;11814;44.686;10.842;2024-03-06T14:05:05;20.10;56.40
23291;DHT22;11814;44.686;10.842;2024-03-06T14:07:31;20.20;56.80
23291;DHT22;11814;44.686;10.842;2024-03-06T14:09:56;20.30;56.80
23291;DHT22;11814;44.686;10.842;2024-03-06T14:12:22;20.30;56.60
23291;DHT22;11814;44.686;10.842;2024-03-06T14:14:49;20.20;56.40
23291;DHT22;11814;44.686;10.842;2024-03-06T14:17:14;20.10;56.70
23291;DHT22;11814;44.686;10.842;2024-03-06T14:19:40;20.10;57.30
23291;DHT22;11814;44.686;10.842;2024-03-06T14:22:09;20.20;57.60
23291;DHT22;11814;44.686;10.842;2024-03-06T14:24:34;20.30;57.00
23291;DHT22;11814;44.686;10.842;2024-03-06T14:27:01;20.20;55.90
23291;DHT22;11814;44.686;10.842;2024-03-06T14:29:27;20.10;55.20
23291;DHT22;11814;44.686;10.842;2024-03-06T14:31:53;20.10;55.10
23291;DHT22;11814;44.686;10.842;2024-03-06T14:34:19;20.00;55.10
23291;DHT22;11814;44.686;10.842;2024-03-06T14:36:45;20.00;55.20
23291;DHT22;11814;44.686;10.842;2024-03-06T14:39:11;20.10;54.90
23291;DHT22;11814;44.686;10.842;2024-03-06T14:41:38;20.10;54.50
23291;DHT22;11814;44.686;10.842;2024-03-06T14:44:04;20.00;54.90
23291;DHT22;11814;44.686;10.842;2024-03-06T14:46:30;20.10;55.20
23291;DHT22;11814;44.686;10.842;2024-03-06T14:48:56;20.10;55.10
23291;DHT22;11814;44.686;10.842;2024-03-06T14:51:22;20.00;54.80
23291;DHT22;11814;44.686;10.842;2024-03-06T14:53:47;20.00;54.70
23291;DHT22;11814;44.686;10.842;2024-03-06T14:56:13;19.90;55.00
23291;DHT22;11814;44.686;10.842;2024-03-06T14:58:39;19.90;55.80
23291;DHT22;11814;44.686;10.842;2024-03-06T15:01:05;19.80;56.20
23291;DHT22;11814;44.686;10.842;2024-03-06T15:03:31;19.80;56.40
23291;DHT22;11814;44.686;10.842;2024-03-06T15:05:56;19.70;56.80
23291;DHT22;11814;44.686;10.842;2024-03-06T15:08:22;19.60;57.10
23291;DHT22;11814;44.686;10.842;2024-03-06T15:10:49;19.40;57.40
23291;DHT22;11814;44.686;10.842;2024-03-06T15:13:17;19.30;58.10
23291;DHT22;11814;44.686;10.842;2024-03-06T15:15:44;19.20;59.10
23291;DHT22;11814;44.686;10.842;2024-03-06T15:18:10;19.10;59.50
23291;DHT22;11814;44.686;10.842;2024-03-06T15:20:35;19.10;59.50
23291;DHT22;11814;44.686;10.842;2024-03-06T15:23:02;19.00;59.40
23291;DHT22;11814;44.686;10.842;2024-03-06T15:25:27;18.90;59.40